Terminal Aerodrome Forecast
Issued by NWS

Home | Current Version | Previous Version | Text Only | Print | Product List | Glossary On
Versions: 1 2 3 4 5 6 7 8 9 10 11 12 13 14 15 16 17 18 19 20 21 22 23 24 25
444
FTUS43 KLSX 301724
TAFUIN
TAF
KUIN 301724Z 3018/0118 09012KT 3SM SHRA OVC008
     FM302000 13013G20KT 3SM SHRA VCTS OVC008CB
     FM302300 20013G20KT 4SM SHRA VCTS BKN015CB
     FM010000 22011G20KT P6SM -SHRA BKN035
     FM010200 22012G20KT P6SM VCSH BKN050
     FM010600 18008KT P6SM VCSH BKN060
     FM011200 21014G23KT P6SM OVC015=

USA.gov is the U.S. government's official web portal to all federal, state and local government web resources and services.